Terminal Aerodrome Forecast
Issued by NWS

Home | Current Version | Previous Version | Text Only | Print | Product List | Glossary On
Versions: 1 2 3 4 5 6 7 8 9 10 11 12 13 14 15 16 17 18 19 20 21 22 23 24
000
FTUS41 KPBZ 212300
TAFFKL
TAF
KFKL 212327Z 2200/2224 21004KT P6SM SKC
     FM221300 19009KT P6SM BKN050
     FM221500 21012G19KT P6SM OVC030
      TEMPO 2215/2218 5SM -FZRA
      AMD LTD TO CLD VIS AND WIND=

USA.gov is the U.S. government's official web portal to all federal, state and local government web resources and services.